sensor_id;sensor_type;location;lat;lon;timestamp;temperature;humidity
61255;DHT22;47128;47.530;8.584;2022-09-30T00:00:16;10.60;99.90
61255;DHT22;47128;47.530;8.584;2022-09-30T00:02:42;10.50;99.90
61255;DHT22;47128;47.530;8.584;2022-09-30T00:05:08;10.50;99.90
61255;DHT22;47128;47.530;8.584;2022-09-30T00:07:33;10.50;99.90
61255;DHT22;47128;47.530;8.584;2022-09-30T00:09:59;10.50;99.90
61255;DHT22;47128;47.530;8.584;2022-09-30T00:12:24;10.50;99.90
61255;DHT22;47128;47.530;8.584;2022-09-30T00:14:52;10.50;99.90
61255;DHT22;47128;47.530;8.584;2022-09-30T00:17:18;10.50;99.90
61255;DHT22;47128;47.530;8.584;2022-09-30T00:19:43;10.50;99.90
61255;DHT22;47128;47.530;8.584;2022-09-30T00:22:09;10.50;99.90
61255;DHT22;47128;47.530;8.584;2022-09-30T00:24:35;10.50;99.90
61255;DHT22;47128;47.530;8.584;2022-09-30T00:27:00;10.50;99.90
61255;DHT22;47128;47.530;8.584;2022-09-30T00:29:26;10.60;99.90
61255;DHT22;47128;47.530;8.584;2022-09-30T00:31:51;10.50;99.90
61255;DHT22;47128;47.530;8.584;2022-09-30T00:34:17;10.50;99.90
61255;DHT22;47128;47.530;8.584;2022-09-30T00:36:47;10.50;99.90
61255;DHT22;47128;47.530;8.584;2022-09-30T00:39:19;10.50;99.90
61255;DHT22;47128;47.530;8.584;2022-09-30T00:41:48;10.50;99.90
61255;DHT22;47128;47.530;8.584;2022-09-30T00:44:48;10.50;99.90
61255;DHT22;47128;47.530;8.584;2022-09-30T00:52:59;10.50;99.90
61255;DHT22;47128;47.530;8.584;2022-09-30T00:58:38;10.50;99.90
61255;DHT22;47128;47.530;8.584;2022-09-30T01:01:06;10.50;99.90
61255;DHT22;47128;47.530;8.584;2022-09-30T01:03:41;10.50;99.90
61255;DHT22;47128;47.530;8.584;2022-09-30T01:06:09;10.50;99.90
61255;DHT22;47128;47.530;8.584;2022-09-30T01:08:37;10.50;99.90
61255;DHT22;47128;47.530;8.584;2022-09-30T01:11:04;10.50;99.90
61255;DHT22;47128;47.530;8.584;2022-09-30T01:13:30;10.50;99.90
61255;DHT22;47128;47.530;8.584;2022-09-30T01:26:45;10.50;99.90
61255;DHT22;47128;47.530;8.584;2022-09-30T01:30:08;10.50;99.90
61255;DHT22;47128;47.530;8.584;2022-09-30T01:32:39;10.50;99.90
61255;DHT22;47128;47.530;8.584;2022-09-30T01:35:20;10.60;99.90
61255;DHT22;47128;47.530;8.584;2022-09-30T01:38:12;10.60;99.90
61255;DHT22;47128;47.530;8.584;2022-09-30T01:43:39;10.60;99.90
61255;DHT22;47128;47.530;8.584;2022-09-30T01:49:09;10.70;99.90
61255;DHT22;47128;47.530;8.584;2022-09-30T01:51:50;10.70;99.90
61255;DHT22;47128;47.530;8.584;2022-09-30T01:59:57;10.70;99.90
61255;DHT22;47128;47.530;8.584;2022-09-30T02:02:26;10.80;99.90
61255;DHT22;47128;47.530;8.584;2022-09-30T02:04:58;10.80;99.90
61255;DHT22;47128;47.530;8.584;2022-09-30T02:07:34;10.80;99.90
61255;DHT22;47128;47.530;8.584;2022-09-30T02:10:16;10.70;99.90
61255;DHT22;47128;47.530;8.584;2022-09-30T02:12:53;10.70;99.90
61255;DHT22;47128;47.530;8.584;2022-09-30T02:15:22;10.70;99.90
61255;DHT22;47128;47.530;8.584;2022-09-30T02:17:54;10.70;99.90
61255;DHT22;47128;47.530;8.584;2022-09-30T02:20:25;10.70;99.90
61255;DHT22;47128;47.530;8.584;2022-09-30T02:22:57;10.70;99.90
61255;DHT22;47128;47.530;8.584;2022-09-30T02:25:32;10.70;99.90
61255;DHT22;47128;47.530;8.584;2022-09-30T02:28:02;10.70;99.90
61255;DHT22;47128;47.530;8.584;2022-09-30T02:30:33;10.70;99.90
61255;DHT22;47128;47.530;8.584;2022-09-30T02:33:05;10.70;99.90
61255;DHT22;47128;47.530;8.584;2022-09-30T02:36:04;10.70;99.90
61255;DHT22;47128;47.530;8.584;2022-09-30T02:38:38;10.70;99.90
61255;DHT22;47128;47.530;8.584;2022-09-30T02:41:11;10.70;99.90
61255;DHT22;47128;47.530;8.584;2022-09-30T02:43:38;10.70;99.90
61255;DHT22;47128;47.530;8.584;2022-09-30T02:49:27;10.70;99.90
61255;DHT22;47128;47.530;8.584;2022-09-30T02:52:01;10.70;99.90
61255;DHT22;47128;47.530;8.584;2022-09-30T02:54:41;10.70;99.90
61255;DHT22;47128;47.530;8.584;2022-09-30T03:00:01;10.70;99.90
61255;DHT22;47128;47.530;8.584;2022-09-30T03:02:27;10.70;99.90
61255;DHT22;47128;47.530;8.584;2022-09-30T03:04:53;10.70;99.90
61255;DHT22;47128;47.530;8.584;2022-09-30T03:07:18;10.60;99.90
61255;DHT22;47128;47.530;8.584;2022-09-30T03:09:44;10.70;99.90
61255;DHT22;47128;47.530;8.584;2022-09-30T03:18:13;10.70;99.90
61255;DHT22;47128;47.530;8.584;2022-09-30T03:23:41;10.60;99.90
61255;DHT22;47128;47.530;8.584;2022-09-30T03:35:18;10.70;99.90
61255;DHT22;47128;47.530;8.584;2022-09-30T03:38:01;10.70;99.90
61255;DHT22;47128;47.530;8.584;2022-09-30T03:43:15;10.70;99.90
61255;DHT22;47128;47.530;8.584;2022-09-30T03:48:24;10.70;99.90
61255;DHT22;47128;47.530;8.584;2022-09-30T03:50:52;10.70;99.90
61255;DHT22;47128;47.530;8.584;2022-09-30T03:53:19;10.70;99.90
61255;DHT22;47128;47.530;8.584;2022-09-30T03:55:47;10.70;99.90
61255;DHT22;47128;47.530;8.584;2022-09-30T03:58:14;10.60;99.90
61255;DHT22;47128;47.530;8.584;2022-09-30T04:00:46;10.60;99.90
61255;DHT22;47128;47.530;8.584;2022-09-30T04:03:12;10.60;99.90
61255;DHT22;47128;47.530;8.584;2022-09-30T04:05:38;10.60;99.90
61255;DHT22;47128;47.530;8.584;2022-09-30T04:08:05;10.60;99.90
61255;DHT22;47128;47.530;8.584;2022-09-30T04:10:30;10.60;99.90
61255;DHT22;47128;47.530;8.584;2022-09-30T04:12:56;10.60;99.90
61255;DHT22;47128;47.530;8.584;2022-09-30T04:15:22;10.60;99.90
61255;DHT22;47128;47.530;8.584;2022-09-30T04:17:48;10.60;99.90
61255;DHT22;47128;47.530;8.584;2022-09-30T04:20:15;10.60;99.90
61255;DHT22;47128;47.530;8.584;2022-09-30T04:22:41;10.50;99.90
61255;DHT22;47128;47.530;8.584;2022-09-30T04:25:07;10.60;99.90
61255;DHT22;47128;47.530;8.584;2022-09-30T04:27:32;10.60;99.90
61255;DHT22;47128;47.530;8.584;2022-09-30T04:29:58;10.60;99.90
61255;DHT22;47128;47.530;8.584;2022-09-30T04:32:23;10.60;99.90
61255;DHT22;47128;47.530;8.584;2022-09-30T04:34:50;10.60;99.90
61255;DHT22;47128;47.530;8.584;2022-09-30T04:37:19;10.60;99.90
61255;DHT22;47128;47.530;8.584;2022-09-30T04:39:46;10.70;99.90
61255;DHT22;47128;47.530;8.584;2022-09-30T04:42:12;10.60;99.90
61255;DHT22;47128;47.530;8.584;2022-09-30T04:44:37;10.60;99.90
61255;DHT22;47128;47.530;8.584;2022-09-30T04:47:04;10.60;99.90
61255;DHT22;47128;47.530;8.584;2022-09-30T04:49:31;10.60;99.90
61255;DHT22;47128;47.530;8.584;2022-09-30T04:51:58;10.60;99.90
61255;DHT22;47128;47.530;8.584;2022-09-30T04:54:26;10.60;99.90
61255;DHT22;47128;47.530;8.584;2022-09-30T04:56:52;10.60;99.90
61255;DHT22;47128;47.530;8.584;2022-09-30T04:59:17;10.60;99.90
61255;DHT22;47128;47.530;8.584;2022-09-30T05:01:43;10.60;99.90
61255;DHT22;47128;47.530;8.584;2022-09-30T05:04:09;10.60;99.90
61255;DHT22;47128;47.530;8.584;2022-09-30T05:06:37;10.60;99.90
61255;DHT22;47128;47.530;8.584;2022-09-30T05:09:05;10.60;99.90
61255;DHT22;47128;47.530;8.584;2022-09-30T05:11:34;10.60;99.90
61255;DHT22;47128;47.530;8.584;2022-09-30T05:14:06;10.60;99.90
61255;DHT22;47128;47.530;8.584;2022-09-30T05:16:35;10.60;99.90
61255;DHT22;47128;47.530;8.584;2022-09-30T05:19:00;10.60;99.90
61255;DHT22;47128;47.530;8.584;2022-09-30T05:21:26;10.60;99.90
61255;DHT22;47128;47.530;8.584;2022-09-30T05:23:53;10.60;99.90
61255;DHT22;47128;47.530;8.584;2022-09-30T05:26:18;10.60;99.90
61255;DHT22;47128;47.530;8.584;2022-09-30T05:28:44;10.60;99.90
61255;DHT22;47128;47.530;8.584;2022-09-30T05:31:10;10.70;99.90
61255;DHT22;47128;47.530;8.584;2022-09-30T05:33:38;10.60;99.90
61255;DHT22;47128;47.530;8.584;2022-09-30T05:36:08;10.60;99.90
61255;DHT22;47128;47.530;8.584;2022-09-30T05:38:35;10.60;99.90
61255;DHT22;47128;47.530;8.584;2022-09-30T05:41:07;10.60;99.90
61255;DHT22;47128;47.530;8.584;2022-09-30T05:43:40;10.60;99.90
61255;DHT22;47128;47.530;8.584;2022-09-30T05:46:06;10.60;99.90
61255;DHT22;47128;47.530;8.584;2022-09-30T05:48:32;10.60;99.90
61255;DHT22;47128;47.530;8.584;2022-09-30T05:50:58;10.60;99.90
61255;DHT22;47128;47.530;8.584;2022-09-30T05:53:26;10.50;99.90
61255;DHT22;47128;47.530;8.584;2022-09-30T05:55:52;10.60;99.90
61255;DHT22;47128;47.530;8.584;2022-09-30T05:58:23;10.60;99.90
61255;DHT22;47128;47.530;8.584;2022-09-30T06:00:50;10.60;99.90
61255;DHT22;47128;47.530;8.584;2022-09-30T06:03:16;10.70;99.90
61255;DHT22;47128;47.530;8.584;2022-09-30T06:05:42;10.70;99.90
61255;DHT22;47128;47.530;8.584;2022-09-30T06:08:14;10.80;99.90
61255;DHT22;47128;47.530;8.584;2022-09-30T06:10:43;10.70;99.90
61255;DHT22;47128;47.530;8.584;2022-09-30T06:13:12;10.70;99.90
61255;DHT22;47128;47.530;8.584;2022-09-30T06:15:38;10.80;99.90
61255;DHT22;47128;47.530;8.584;2022-09-30T06:18:05;10.80;99.90
61255;DHT22;47128;47.530;8.584;2022-09-30T06:20:32;10.80;99.90
61255;DHT22;47128;47.530;8.584;2022-09-30T06:22:59;10.80;99.90
61255;DHT22;47128;47.530;8.584;2022-09-30T06:25:26;10.80;99.90
61255;DHT22;47128;47.530;8.584;2022-09-30T06:27:52;10.90;99.90
61255;DHT22;47128;47.530;8.584;2022-09-30T06:30:18;10.90;99.90
61255;DHT22;47128;47.530;8.584;2022-09-30T06:32:46;10.80;99.90
61255;DHT22;47128;47.530;8.584;2022-09-30T06:35:13;10.80;99.90
61255;DHT22;47128;47.530;8.584;2022-09-30T06:37:40;10.80;99.90
61255;DHT22;47128;47.530;8.584;2022-09-30T06:40:07;10.80;99.90
61255;DHT22;47128;47.530;8.584;2022-09-30T06:42:33;10.80;99.90
61255;DHT22;47128;47.530;8.584;2022-09-30T06:44:59;10.80;99.90
61255;DHT22;47128;47.530;8.584;2022-09-30T06:47:26;10.80;99.90
61255;DHT22;47128;47.530;8.584;2022-09-30T06:49:52;10.80;99.90
61255;DHT22;47128;47.530;8.584;2022-09-30T06:52:22;10.90;99.90
61255;DHT22;47128;47.530;8.584;2022-09-30T06:54:52;10.90;99.90
61255;DHT22;47128;47.530;8.584;2022-09-30T06:57:21;10.90;99.90
61255;DHT22;47128;47.530;8.584;2022-09-30T06:59:49;10.90;99.90
61255;DHT22;47128;47.530;8.584;2022-09-30T07:02:15;11.00;99.90
61255;DHT22;47128;47.530;8.584;2022-09-30T07:04:42;10.90;99.90
61255;DHT22;47128;47.530;8.584;2022-09-30T07:07:08;10.90;99.90
61255;DHT22;47128;47.530;8.584;2022-09-30T07:09:34;11.00;99.90
61255;DHT22;47128;47.530;8.584;2022-09-30T07:11:59;11.00;99.90
61255;DHT22;47128;47.530;8.584;2022-09-30T07:14:25;11.00;99.90
61255;DHT22;47128;47.530;8.584;2022-09-30T07:16:52;11.00;99.90
61255;DHT22;47128;47.530;8.584;2022-09-30T07:19:18;11.00;99.90
61255;DHT22;47128;47.530;8.584;2022-09-30T07:21:55;11.00;99.90
61255;DHT22;47128;47.530;8.584;2022-09-30T07:24:22;11.10;99.90
61255;DHT22;47128;47.530;8.584;2022-09-30T07:26:48;11.10;99.90
61255;DHT22;47128;47.530;8.584;2022-09-30T07:29:14;11.10;99.90
61255;DHT22;47128;47.530;8.584;2022-09-30T07:31:40;11.10;99.90
61255;DHT22;47128;47.530;8.584;2022-09-30T07:34:08;11.10;99.90
61255;DHT22;47128;47.530;8.584;2022-09-30T07:36:35;11.20;99.90
61255;DHT22;47128;47.530;8.584;2022-09-30T07:39:03;11.10;99.90
61255;DHT22;47128;47.530;8.584;2022-09-30T07:41:35;11.20;99.90
61255;DHT22;47128;47.530;8.584;2022-09-30T07:44:09;11.30;99.90
61255;DHT22;47128;47.530;8.584;2022-09-30T07:46:42;11.30;99.90
61255;DHT22;47128;47.530;8.584;2022-09-30T07:49:14;11.40;99.90
61255;DHT22;47128;47.530;8.584;2022-09-30T07:51:45;11.30;99.90
61255;DHT22;47128;47.530;8.584;2022-09-30T07:54:17;11.40;99.90
61255;DHT22;47128;47.530;8.584;2022-09-30T07:56:49;11.40;99.90
61255;DHT22;47128;47.530;8.584;2022-09-30T07:59:16;11.40;99.90
61255;DHT22;47128;47.530;8.584;2022-09-30T08:01:44;11.40;99.90
61255;DHT22;47128;47.530;8.584;2022-09-30T08:04:23;11.40;99.90
61255;DHT22;47128;47.530;8.584;2022-09-30T08:06:57;11.50;99.90
61255;DHT22;47128;47.530;8.584;2022-09-30T08:09:33;11.50;99.90
61255;DHT22;47128;47.530;8.584;2022-09-30T08:12:02;11.50;99.90
61255;DHT22;47128;47.530;8.584;2022-09-30T08:14:32;11.60;99.90
61255;DHT22;47128;47.530;8.584;2022-09-30T08:16:58;11.70;99.90
61255;DHT22;47128;47.530;8.584;2022-09-30T08:19:27;11.80;99.90
61255;DHT22;47128;47.530;8.584;2022-09-30T08:21:53;11.80;99.90
61255;DHT22;47128;47.530;8.584;2022-09-30T08:24:30;11.90;99.90
61255;DHT22;47128;47.530;8.584;2022-09-30T08:27:01;11.90;99.90
61255;DHT22;47128;47.530;8.584;2022-09-30T08:29:49;11.80;99.90
61255;DHT22;47128;47.530;8.584;2022-09-30T08:32:21;11.90;99.90
61255;DHT22;47128;47.530;8.584;2022-09-30T08:34:50;11.80;99.90
61255;DHT22;47128;47.530;8.584;2022-09-30T08:37:18;11.80;99.90
61255;DHT22;47128;47.530;8.584;2022-09-30T08:39:44;11.70;99.90
61255;DHT22;47128;47.530;8.584;2022-09-30T08:45:28;11.80;99.90
61255;DHT22;47128;47.530;8.584;2022-09-30T08:57:36;12.00;99.90
61255;DHT22;47128;47.530;8.584;2022-09-30T09:00:20;12.00;99.90
61255;DHT22;47128;47.530;8.584;2022-09-30T09:03:00;12.00;99.90
61255;DHT22;47128;47.530;8.584;2022-09-30T09:15:06;12.30;99.90
61255;DHT22;47128;47.530;8.584;2022-09-30T09:20:55;12.40;99.90
61255;DHT22;47128;47.530;8.584;2022-09-30T09:23:23;12.40;99.90
61255;DHT22;47128;47.530;8.584;2022-09-30T09:25:54;12.50;99.90
61255;DHT22;47128;47.530;8.584;2022-09-30T09:28:47;12.50;99.90
61255;DHT22;47128;47.530;8.584;2022-09-30T09:31:20;12.40;99.90
61255;DHT22;47128;47.530;8.584;2022-09-30T09:33:48;12.40;99.90
61255;DHT22;47128;47.530;8.584;2022-09-30T09:39:48;12.80;99.90
61255;DHT22;47128;47.530;8.584;2022-09-30T09:42:50;13.00;99.90
61255;DHT22;47128;47.530;8.584;2022-09-30T09:45:41;13.20;99.90
61255;DHT22;47128;47.530;8.584;2022-09-30T09:48:14;13.20;99.90
61255;DHT22;47128;47.530;8.584;2022-09-30T09:51:05;13.20;99.90
61255;DHT22;47128;47.530;8.584;2022-09-30T09:56:25;13.10;99.90
61255;DHT22;47128;47.530;8.584;2022-09-30T09:59:14;13.20;99.90
61255;DHT22;47128;47.530;8.584;2022-09-30T10:01:46;13.30;99.90
61255;DHT22;47128;47.530;8.584;2022-09-30T10:04:20;13.40;99.90
61255;DHT22;47128;47.530;8.584;2022-09-30T10:06:58;13.40;99.90
61255;DHT22;47128;47.530;8.584;2022-09-30T10:09:42;13.60;99.90
61255;DHT22;47128;47.530;8.584;2022-09-30T10:14:41;14.20;99.90
61255;DHT22;47128;47.530;8.584;2022-09-30T10:17:32;14.60;99.90
61255;DHT22;47128;47.530;8.584;2022-09-30T10:22:35;14.80;99.90
61255;DHT22;47128;47.530;8.584;2022-09-30T10:27:52;15.00;99.60
61255;DHT22;47128;47.530;8.584;2022-09-30T10:33:11;15.00;99.70
61255;DHT22;47128;47.530;8.584;2022-09-30T10:35:53;14.80;99.10
61255;DHT22;47128;47.530;8.584;2022-09-30T10:38:22;14.60;98.80
61255;DHT22;47128;47.530;8.584;2022-09-30T10:40:49;14.40;98.70
61255;DHT22;47128;47.530;8.584;2022-09-30T10:43:38;14.60;99.50
61255;DHT22;47128;47.530;8.584;2022-09-30T10:46:05;15.00;96.60
61255;DHT22;47128;47.530;8.584;2022-09-30T10:48:35;15.00;97.00
61255;DHT22;47128;47.530;8.584;2022-09-30T10:51:03;14.90;97.30
61255;DHT22;47128;47.530;8.584;2022-09-30T10:53:34;14.70;97.30
61255;DHT22;47128;47.530;8.584;2022-09-30T10:56:01;14.90;96.80
61255;DHT22;47128;47.530;8.584;2022-09-30T11:04:05;15.80;96.20
61255;DHT22;47128;47.530;8.584;2022-09-30T11:06:41;15.90;95.00
61255;DHT22;47128;47.530;8.584;2022-09-30T11:09:45;16.40;94.00
61255;DHT22;47128;47.530;8.584;2022-09-30T11:12:29;16.50;93.30
61255;DHT22;47128;47.530;8.584;2022-09-30T11:15:16;15.90;93.30
61255;DHT22;47128;47.530;8.584;2022-09-30T11:18:11;15.60;93.80
61255;DHT22;47128;47.530;8.584;2022-09-30T11:20:52;15.40;94.90
61255;DHT22;47128;47.530;8.584;2022-09-30T11:23:25;15.40;94.40
61255;DHT22;47128;47.530;8.584;2022-09-30T11:26:04;15.30;94.50
61255;DHT22;47128;47.530;8.584;2022-09-30T11:37:14;15.10;96.60
61255;DHT22;47128;47.530;8.584;2022-09-30T11:54:28;16.80;93.00
61255;DHT22;47128;47.530;8.584;2022-09-30T11:57:32;16.50;93.30
61255;DHT22;47128;47.530;8.584;2022-09-30T12:00:15;16.20;93.90
61255;DHT22;47128;47.530;8.584;2022-09-30T12:02:45;15.80;94.00
61255;DHT22;47128;47.530;8.584;2022-09-30T12:08:39;15.30;94.60
61255;DHT22;47128;47.530;8.584;2022-09-30T12:11:15;15.10;95.30
61255;DHT22;47128;47.530;8.584;2022-09-30T12:13:50;15.00;94.90
61255;DHT22;47128;47.530;8.584;2022-09-30T12:16:19;15.00;95.40
61255;DHT22;47128;47.530;8.584;2022-09-30T12:18:52;15.00;95.80
61255;DHT22;47128;47.530;8.584;2022-09-30T12:21:28;15.00;95.50
61255;DHT22;47128;47.530;8.584;2022-09-30T12:24:19;15.00;95.80
61255;DHT22;47128;47.530;8.584;2022-09-30T12:26:49;15.10;96.00
61255;DHT22;47128;47.530;8.584;2022-09-30T12:29:30;15.10;96.20
61255;DHT22;47128;47.530;8.584;2022-09-30T12:38:45;14.90;95.90
61255;DHT22;47128;47.530;8.584;2022-09-30T12:42:36;14.90;95.40
61255;DHT22;47128;47.530;8.584;2022-09-30T12:44:49;14.90;95.50
61255;DHT22;47128;47.530;8.584;2022-09-30T12:47:36;14.90;95.80
61255;DHT22;47128;47.530;8.584;2022-09-30T12:50:20;14.90;95.30
61255;DHT22;47128;47.530;8.584;2022-09-30T12:52:48;14.90;95.80
61255;DHT22;47128;47.530;8.584;2022-09-30T12:55:38;15.10;95.80
61255;DHT22;47128;47.530;8.584;2022-09-30T12:58:12;15.10;94.70
61255;DHT22;47128;47.530;8.584;2022-09-30T13:01:05;15.10;94.60
61255;DHT22;47128;47.530;8.584;2022-09-30T13:03:50;15.00;95.00
61255;DHT22;47128;47.530;8.584;2022-09-30T13:06:20;15.00;95.20
61255;DHT22;47128;47.530;8.584;2022-09-30T13:12:23;15.40;94.40
61255;DHT22;47128;47.530;8.584;2022-09-30T13:14:38;15.70;94.50
61255;DHT22;47128;47.530;8.584;2022-09-30T13:19:37;15.70;93.50
61255;DHT22;47128;47.530;8.584;2022-09-30T13:25:11;15.60;93.20
61255;DHT22;47128;47.530;8.584;2022-09-30T13:30:39;16.00;92.00
61255;DHT22;47128;47.530;8.584;2022-09-30T13:33:27;16.20;92.50
61255;DHT22;47128;47.530;8.584;2022-09-30T13:35:57;16.30;92.40
61255;DHT22;47128;47.530;8.584;2022-09-30T13:38:34;16.20;92.20
61255;DHT22;47128;47.530;8.584;2022-09-30T13:41:25;16.00;91.90
61255;DHT22;47128;47.530;8.584;2022-09-30T13:44:07;15.80;92.00
61255;DHT22;47128;47.530;8.584;2022-09-30T13:46:48;15.60;92.20
61255;DHT22;47128;47.530;8.584;2022-09-30T13:49:20;15.50;92.70
61255;DHT22;47128;47.530;8.584;2022-09-30T13:51:47;15.70;93.60
61255;DHT22;47128;47.530;8.584;2022-09-30T13:54:28;15.40;93.30
61255;DHT22;47128;47.530;8.584;2022-09-30T13:56:58;15.50;93.80
61255;DHT22;47128;47.530;8.584;2022-09-30T14:21:43;15.70;92.10
61255;DHT22;47128;47.530;8.584;2022-09-30T14:34:57;15.30;93.30
61255;DHT22;47128;47.530;8.584;2022-09-30T14:37:27;15.30;93.50
61255;DHT22;47128;47.530;8.584;2022-09-30T14:39:54;15.30;92.90
61255;DHT22;47128;47.530;8.584;2022-09-30T14:42:29;15.30;94.70
61255;DHT22;47128;47.530;8.584;2022-09-30T14:44:58;15.10;94.90
61255;DHT22;47128;47.530;8.584;2022-09-30T14:47:39;15.10;94.20
61255;DHT22;47128;47.530;8.584;2022-09-30T14:50:17;15.10;94.50
61255;DHT22;47128;47.530;8.584;2022-09-30T14:52:45;15.10;94.30
61255;DHT22;47128;47.530;8.584;2022-09-30T14:55:24;15.00;93.80
61255;DHT22;47128;47.530;8.584;2022-09-30T14:57:53;15.00;95.90
61255;DHT22;47128;47.530;8.584;2022-09-30T15:00:39;15.00;95.30
61255;DHT22;47128;47.530;8.584;2022-09-30T15:03:10;14.80;96.90
61255;DHT22;47128;47.530;8.584;2022-09-30T15:05:36;14.70;96.50
61255;DHT22;47128;47.530;8.584;2022-09-30T15:08:08;14.70;96.60
61255;DHT22;47128;47.530;8.584;2022-09-30T15:10:35;14.70;96.60
61255;DHT22;47128;47.530;8.584;2022-09-30T15:13:01;14.70;96.80
61255;DHT22;47128;47.530;8.584;2022-09-30T15:15:35;14.50;98.10
61255;DHT22;47128;47.530;8.584;2022-09-30T15:20:53;14.30;97.60
61255;DHT22;47128;47.530;8.584;2022-09-30T15:23:29;14.30;99.40
61255;DHT22;47128;47.530;8.584;2022-09-30T15:25:56;14.10;99.90
61255;DHT22;47128;47.530;8.584;2022-09-30T15:28:22;14.10;99.90
61255;DHT22;47128;47.530;8.584;2022-09-30T15:30:49;14.20;99.90
61255;DHT22;47128;47.530;8.584;2022-09-30T15:33:20;14.20;99.90
61255;DHT22;47128;47.530;8.584;2022-09-30T15:35:48;14.50;99.90
61255;DHT22;47128;47.530;8.584;2022-09-30T15:40:47;14.50;99.90
61255;DHT22;47128;47.530;8.584;2022-09-30T15:43:31;14.50;99.90
61255;DHT22;47128;47.530;8.584;2022-09-30T15:46:27;14.60;99.90
61255;DHT22;47128;47.530;8.584;2022-09-30T15:49:00;14.80;99.90
61255;DHT22;47128;47.530;8.584;2022-09-30T15:51:39;14.40;99.90
61255;DHT22;47128;47.530;8.584;2022-09-30T15:56:41;14.20;99.90
61255;DHT22;47128;47.530;8.584;2022-09-30T15:59:07;14.20;99.90
61255;DHT22;47128;47.530;8.584;2022-09-30T16:01:51;14.00;99.90
61255;DHT22;47128;47.530;8.584;2022-09-30T16:04:23;13.90;99.90
61255;DHT22;47128;47.530;8.584;2022-09-30T16:06:54;13.80;99.90
61255;DHT22;47128;47.530;8.584;2022-09-30T16:09:35;13.70;99.90
61255;DHT22;47128;47.530;8.584;2022-09-30T16:17:36;13.60;99.90
61255;DHT22;47128;47.530;8.584;2022-09-30T16:20:20;13.60;99.90
61255;DHT22;47128;47.530;8.584;2022-09-30T16:22:48;13.60;99.90
61255;DHT22;47128;47.530;8.584;2022-09-30T16:25:29;13.60;99.90
61255;DHT22;47128;47.530;8.584;2022-09-30T16:28:11;13.60;99.90
61255;DHT22;47128;47.530;8.584;2022-09-30T16:30:51;13.50;99.90
61255;DHT22;47128;47.530;8.584;2022-09-30T16:33:18;13.50;99.90
61255;DHT22;47128;47.530;8.584;2022-09-30T16:35:44;13.40;99.90
61255;DHT22;47128;47.530;8.584;2022-09-30T16:38:16;13.30;99.90
61255;DHT22;47128;47.530;8.584;2022-09-30T16:40:41;13.20;99.90
61255;DHT22;47128;47.530;8.584;2022-09-30T16:43:07;13.10;99.90
61255;DHT22;47128;47.530;8.584;2022-09-30T16:45:36;13.10;99.90
61255;DHT22;47128;47.530;8.584;2022-09-30T16:48:14;13.00;99.90
61255;DHT22;47128;47.530;8.584;2022-09-30T16:51:19;12.90;99.90
61255;DHT22;47128;47.530;8.584;2022-09-30T16:53:44;12.90;99.90
61255;DHT22;47128;47.530;8.584;2022-09-30T16:56:17;12.80;99.90
61255;DHT22;47128;47.530;8.584;2022-09-30T16:58:44;12.80;99.90
61255;DHT22;47128;47.530;8.584;2022-09-30T17:01:21;12.80;99.90
61255;DHT22;47128;47.530;8.584;2022-09-30T17:03:47;12.70;99.90
61255;DHT22;47128;47.530;8.584;2022-09-30T17:06:14;12.60;99.90
61255;DHT22;47128;47.530;8.584;2022-09-30T17:08:41;12.60;99.90
61255;DHT22;47128;47.530;8.584;2022-09-30T17:11:07;12.60;99.90
61255;DHT22;47128;47.530;8.584;2022-09-30T17:13:34;12.50;99.90
61255;DHT22;47128;47.530;8.584;2022-09-30T17:16:00;12.50;99.90
61255;DHT22;47128;47.530;8.584;2022-09-30T17:18:26;12.40;99.90
61255;DHT22;47128;47.530;8.584;2022-09-30T17:20:51;12.40;99.90
61255;DHT22;47128;47.530;8.584;2022-09-30T17:23:22;12.40;99.90
61255;DHT22;47128;47.530;8.584;2022-09-30T17:25:49;12.40;99.90
61255;DHT22;47128;47.530;8.584;2022-09-30T17:28:15;12.40;99.90
61255;DHT22;47128;47.530;8.584;2022-09-30T17:30:43;12.30;99.90
61255;DHT22;47128;47.530;8.584;2022-09-30T17:33:09;12.40;99.90
61255;DHT22;47128;47.530;8.584;2022-09-30T17:35:36;12.40;99.90
61255;DHT22;47128;47.530;8.584;2022-09-30T17:38:05;12.40;99.90
61255;DHT22;47128;47.530;8.584;2022-09-30T17:40:31;12.30;99.90
61255;DHT22;47128;47.530;8.584;2022-09-30T17:43:15;12.30;99.90
61255;DHT22;47128;47.530;8.584;2022-09-30T17:45:42;12.30;99.90
61255;DHT22;47128;47.530;8.584;2022-09-30T17:48:09;12.30;99.90
61255;DHT22;47128;47.530;8.584;2022-09-30T17:50:37;12.30;99.90
61255;DHT22;47128;47.530;8.584;2022-09-30T17:53:04;12.30;99.90
61255;DHT22;47128;47.530;8.584;2022-09-30T17:55:30;12.30;99.90
61255;DHT22;47128;47.530;8.584;2022-09-30T17:57:58;12.30;99.90
61255;DHT22;47128;47.530;8.584;2022-09-30T18:00:25;12.20;99.90
61255;DHT22;47128;47.530;8.584;2022-09-30T18:02:52;12.20;99.90
61255;DHT22;47128;47.530;8.584;2022-09-30T18:05:19;12.20;99.90
61255;DHT22;47128;47.530;8.584;2022-09-30T18:07:47;12.30;99.90
61255;DHT22;47128;47.530;8.584;2022-09-30T18:10:12;12.30;99.90
61255;DHT22;47128;47.530;8.584;2022-09-30T18:12:38;12.20;99.90
61255;DHT22;47128;47.530;8.584;2022-09-30T18:15:05;12.10;99.90
61255;DHT22;47128;47.530;8.584;2022-09-30T18:17:30;12.10;99.90
61255;DHT22;47128;47.530;8.584;2022-09-30T18:19:56;12.10;99.90
61255;DHT22;47128;47.530;8.584;2022-09-30T18:22:22;12.00;99.90
61255;DHT22;47128;47.530;8.584;2022-09-30T18:24:47;12.00;99.90
61255;DHT22;47128;47.530;8.584;2022-09-30T18:27:33;12.00;99.90
61255;DHT22;47128;47.530;8.584;2022-09-30T18:29:59;12.00;99.90
61255;DHT22;47128;47.530;8.584;2022-09-30T18:32:29;12.10;99.90
61255;DHT22;47128;47.530;8.584;2022-09-30T18:34:55;12.10;99.90
61255;DHT22;47128;47.530;8.584;2022-09-30T18:37:22;12.10;99.90
61255;DHT22;47128;47.530;8.584;2022-09-30T18:39:47;12.00;99.90
61255;DHT22;47128;47.530;8.584;2022-09-30T18:42:13;11.90;99.90
61255;DHT22;47128;47.530;8.584;2022-09-30T18:44:39;11.90;99.90
61255;DHT22;47128;47.530;8.584;2022-09-30T18:47:05;11.80;99.90
61255;DHT22;47128;47.530;8.584;2022-09-30T18:49:30;11.80;99.90
61255;DHT22;47128;47.530;8.584;2022-09-30T18:51:56;11.80;99.90
61255;DHT22;47128;47.530;8.584;2022-09-30T18:54:22;11.80;99.90
61255;DHT22;47128;47.530;8.584;2022-09-30T18:56:48;11.80;99.90
61255;DHT22;47128;47.530;8.584;2022-09-30T18:59:15;11.90;99.90
61255;DHT22;47128;47.530;8.584;2022-09-30T19:01:41;11.90;99.90
61255;DHT22;47128;47.530;8.584;2022-09-30T19:04:10;11.80;99.90
61255;DHT22;47128;47.530;8.584;2022-09-30T19:06:37;11.90;99.90
61255;DHT22;47128;47.530;8.584;2022-09-30T19:09:03;11.80;99.90
61255;DHT22;47128;47.530;8.584;2022-09-30T19:11:32;11.80;99.90
61255;DHT22;47128;47.530;8.584;2022-09-30T19:13:59;11.80;99.90
61255;DHT22;47128;47.530;8.584;2022-09-30T19:16:27;11.80;99.90